createdAt,value
2018-05-17T00:00:39.303Z,78.60
2018-05-17T00:03:06.547Z,78.90
2018-05-17T00:05:33.552Z,78.90
2018-05-17T00:08:00.831Z,78.70
2018-05-17T00:10:27.780Z,78.70
2018-05-17T00:12:54.651Z,79.10
2018-05-17T00:15:21.513Z,79.00
2018-05-17T00:17:48.375Z,78.60
2018-05-17T00:20:15.259Z,78.70
2018-05-17T00:22:42.114Z,78.20
2018-05-17T00:25:09.040Z,78.20
2018-05-17T00:27:35.908Z,78.10
2018-05-17T00:30:02.809Z,78.20
2018-05-17T00:32:29.712Z,78.10
2018-05-17T00:34:56.558Z,78.90
2018-05-17T00:37:23.430Z,78.90
2018-05-17T00:39:50.300Z,78.90
2018-05-17T00:42:17.149Z,79.00
2018-05-17T00:44:44.019Z,78.40
2018-05-17T00:47:10.874Z,78.70
2018-05-17T00:49:37.816Z,78.10
2018-05-17T00:52:04.700Z,78.80
2018-05-17T00:54:31.568Z,78.70
2018-05-17T00:56:58.428Z,78.90
2018-05-17T00:59:25.343Z,79.10
2018-05-17T01:01:52.397Z,79.40
2018-05-17T01:04:19.191Z,80.30
2018-05-17T01:06:46.034Z,79.60
2018-05-17T01:09:12.974Z,79.50
2018-05-17T01:11:39.934Z,80.00
2018-05-17T01:14:06.905Z,80.20
2018-05-17T01:16:33.784Z,80.90
2018-05-17T01:19:00.659Z,80.90
2018-05-17T01:21:27.601Z,81.40
2018-05-17T01:23:54.546Z,81.50
2018-05-17T01:26:21.401Z,81.30
2018-05-17T01:28:48.284Z,80.80
2018-05-17T01:31:15.175Z,80.90
2018-05-17T01:33:42.065Z,80.90
2018-05-17T01:36:09.031Z,81.20
2018-05-17T01:38:35.979Z,81.20
2018-05-17T01:41:02.855Z,81.40
2018-05-17T01:43:29.743Z,81.30
2018-05-17T01:45:56.579Z,80.80
2018-05-17T01:48:23.532Z,81.10
2018-05-17T01:50:50.400Z,81.60
2018-05-17T01:53:17.342Z,81.70
2018-05-17T01:55:44.295Z,81.90
2018-05-17T01:58:11.162Z,82.20
2018-05-17T02:00:38.093Z,82.00
2018-05-17T02:03:04.956Z,81.70
2018-05-17T02:05:31.857Z,81.50
2018-05-17T02:07:58.714Z,81.30
2018-05-17T02:10:25.579Z,80.70
2018-05-17T02:12:52.903Z,80.70
2018-05-17T02:15:19.767Z,80.70
2018-05-17T02:17:46.713Z,81.20
2018-05-17T02:20:13.554Z,81.60
2018-05-17T02:22:40.416Z,81.60
2018-05-17T02:25:07.287Z,81.70
2018-05-17T02:27:34.168Z,81.40
2018-05-17T02:30:01.121Z,82.00
2018-05-17T02:32:28.410Z,82.00
2018-05-17T02:34:55.284Z,81.90
2018-05-17T02:37:22.155Z,81.90
2018-05-17T02:39:49.410Z,81.30
2018-05-17T02:42:16.731Z,81.10
2018-05-17T02:44:43.677Z,81.10
2018-05-17T02:47:10.533Z,81.30
2018-05-17T02:49:37.398Z,81.00
2018-05-17T02:52:04.265Z,80.50
2018-05-17T02:54:31.225Z,80.40
2018-05-17T02:56:58.098Z,80.70
2018-05-17T02:59:24.957Z,80.90
2018-05-17T03:01:51.887Z,80.60
2018-05-17T03:04:18.839Z,80.10
2018-05-17T03:06:45.711Z,79.80
2018-05-17T03:09:12.655Z,79.90
2018-05-17T03:11:39.529Z,80.50
2018-05-17T03:14:06.384Z,80.00
2018-05-17T03:16:33.260Z,80.60
2018-05-17T03:19:00.200Z,80.60
2018-05-17T03:21:27.043Z,80.30
2018-05-17T03:23:54.406Z,80.10
2018-05-17T03:26:21.288Z,80.30
2018-05-17T03:28:48.176Z,80.50
2018-05-17T03:31:15.029Z,80.60
2018-05-17T03:33:41.938Z,80.80
2018-05-17T03:36:08.813Z,80.40
2018-05-17T03:38:35.757Z,80.00
2018-05-17T03:41:02.632Z,79.90
2018-05-17T03:43:29.631Z,79.30
2018-05-17T03:45:56.498Z,79.30
2018-05-17T03:48:23.834Z,79.40
2018-05-17T03:50:50.761Z,79.30
2018-05-17T03:53:17.619Z,79.10
2018-05-17T03:55:44.519Z,78.90
2018-05-17T03:58:11.375Z,78.20
2018-05-17T04:00:50.198Z,78.40
2018-05-17T04:03:29.080Z,78.10
2018-05-17T04:06:08.389Z,77.10
2018-05-17T04:08:35.370Z,77.10
2018-05-17T04:11:02.205Z,77.60
2018-05-17T04:13:29.159Z,77.60
2018-05-17T04:15:56.098Z,77.60
2018-05-17T04:18:23.060Z,77.90
2018-05-17T04:20:50.032Z,78.10
2018-05-17T04:23:16.963Z,77.50
2018-05-17T04:25:44.250Z,77.00
2018-05-17T04:28:11.110Z,77.00
2018-05-17T04:30:37.987Z,76.80
2018-05-17T04:33:04.841Z,76.60
2018-05-17T04:35:31.792Z,76.90
2018-05-17T04:37:58.760Z,77.80
2018-05-17T04:40:25.627Z,78.20
2018-05-17T04:42:52.646Z,78.70
2018-05-17T04:45:19.508Z,78.60
2018-05-17T04:47:46.353Z,79.00
2018-05-17T04:50:13.329Z,78.60
2018-05-17T04:52:40.204Z,78.80
2018-05-17T04:55:07.066Z,78.90
2018-05-17T04:57:34.101Z,78.50
2018-05-17T05:00:00.967Z,77.70
2018-05-17T05:02:28.019Z,77.80
2018-05-17T05:04:54.963Z,77.60
2018-05-17T05:07:21.850Z,78.60
2018-05-17T05:09:48.810Z,78.70
2018-05-17T05:12:15.726Z,78.80
2018-05-17T05:14:42.614Z,78.70
2018-05-17T05:17:09.528Z,78.80
2018-05-17T05:19:36.831Z,78.10
2018-05-17T05:22:03.804Z,78.10
2018-05-17T05:24:30.693Z,78.10
2018-05-17T05:26:57.541Z,79.00
2018-05-17T05:29:24.494Z,79.50
2018-05-17T05:31:51.338Z,79.60
2018-05-17T05:34:18.201Z,79.50
2018-05-17T05:36:45.051Z,79.20
2018-05-17T05:39:12.054Z,78.50
2018-05-17T05:41:39.382Z,77.10
2018-05-17T05:44:06.263Z,77.10
2018-05-17T05:46:33.187Z,76.70
2018-05-17T05:49:00.075Z,76.40
2018-05-17T05:51:27.013Z,76.70
2018-05-17T05:53:53.886Z,76.40
2018-05-17T05:56:20.932Z,76.10
2018-05-17T05:58:47.774Z,76.20
2018-05-17T06:01:14.635Z,75.30
2018-05-17T06:03:41.579Z,75.80
2018-05-17T06:06:08.544Z,77.50
2018-05-17T06:08:35.428Z,77.30
2018-05-17T06:11:02.338Z,77.00
2018-05-17T06:13:29.591Z,77.00
2018-05-17T06:15:56.894Z,76.80
2018-05-17T06:18:23.794Z,76.80
2018-05-17T06:20:50.656Z,77.00
2018-05-17T06:23:17.514Z,76.60
2018-05-17T06:25:44.422Z,76.40
2018-05-17T06:28:11.282Z,75.00
2018-05-17T06:30:38.134Z,74.30
2018-05-17T06:33:05.010Z,73.80
2018-05-17T06:35:31.969Z,74.00
2018-05-17T06:37:58.934Z,73.80
2018-05-17T06:40:25.789Z,73.90
2018-05-17T06:42:52.662Z,73.70
2018-05-17T06:45:19.599Z,73.00
2018-05-17T06:47:46.472Z,73.50
2018-05-17T06:50:13.323Z,74.00
2018-05-17T06:52:40.199Z,74.20
2018-05-17T06:55:07.132Z,74.20
2018-05-17T06:57:34.074Z,74.50
2018-05-17T07:00:01.063Z,73.50
2018-05-17T07:02:28.003Z,74.00
2018-05-17T07:04:54.799Z,73.40
2018-05-17T07:07:21.721Z,71.90
2018-05-17T07:09:48.599Z,71.30
2018-05-17T07:12:15.527Z,70.10
2018-05-17T07:14:42.498Z,70.30
2018-05-17T07:17:09.352Z,71.00
2018-05-17T07:19:36.222Z,71.40
2018-05-17T07:22:03.065Z,72.10
2018-05-17T07:24:29.970Z,72.20
2018-05-17T07:26:56.816Z,73.00
2018-05-17T07:29:23.726Z,73.70
2018-05-17T07:31:50.590Z,73.90
2018-05-17T07:34:17.459Z,73.30
2018-05-17T07:36:44.409Z,73.20
2018-05-17T07:39:11.295Z,72.10
2018-05-17T07:41:38.118Z,70.90
2018-05-17T07:44:04.964Z,69.80
2018-05-17T07:46:31.853Z,70.40
2018-05-17T07:48:58.757Z,69.30
2018-05-17T07:51:26.110Z,68.20
2018-05-17T07:53:53.027Z,68.20
2018-05-17T07:56:19.884Z,69.20
2018-05-17T07:58:46.839Z,69.20
2018-05-17T08:01:13.793Z,69.70
2018-05-17T08:03:40.658Z,69.80
2018-05-17T08:06:07.651Z,69.50
2018-05-17T08:08:34.515Z,68.00
2018-05-17T08:11:01.395Z,67.90
2018-05-17T08:13:28.681Z,67.90
2018-05-17T08:15:56.002Z,67.90
2018-05-17T08:18:22.919Z,67.90
2018-05-17T08:20:49.772Z,67.10
2018-05-17T08:23:16.624Z,67.30
2018-05-17T08:25:43.580Z,67.40
2018-05-17T08:28:10.451Z,67.20
2018-05-17T08:30:37.494Z,66.70
2018-05-17T08:33:04.369Z,67.20
2018-05-17T08:35:31.271Z,66.90
2018-05-17T08:37:58.202Z,66.50
2018-05-17T08:40:25.144Z,65.90
2018-05-17T08:42:52.195Z,66.20
2018-05-17T08:45:19.052Z,66.80
2018-05-17T08:47:45.919Z,66.70
2018-05-17T08:50:12.881Z,66.70
2018-05-17T08:52:39.735Z,66.50
2018-05-17T08:55:06.582Z,67.00
2018-05-17T08:57:33.474Z,66.10
2018-05-17T09:00:00.409Z,66.60
2018-05-17T09:02:27.365Z,67.70
2018-05-17T09:04:54.413Z,66.80
2018-05-17T09:07:21.285Z,66.40
2018-05-17T09:09:48.259Z,67.60
2018-05-17T09:12:15.196Z,66.90
2018-05-17T09:14:42.084Z,67.40
2018-05-17T09:17:08.937Z,67.60
2018-05-17T09:19:35.931Z,67.90
2018-05-17T09:22:03.197Z,67.00
2018-05-17T09:24:30.349Z,67.00
2018-05-17T09:26:57.285Z,65.90
2018-05-17T09:29:24.233Z,66.20
2018-05-17T09:31:51.176Z,65.30
2018-05-17T09:34:18.036Z,64.50
2018-05-17T09:36:44.897Z,64.60
2018-05-17T09:39:11.769Z,65.10
2018-05-17T09:41:38.710Z,65.20
2018-05-17T09:44:05.606Z,64.70
2018-05-17T09:46:32.537Z,64.70
2018-05-17T09:48:59.494Z,64.50
2018-05-17T09:51:26.351Z,63.70
2018-05-17T09:53:53.211Z,63.90
2018-05-17T09:56:20.157Z,64.00
2018-05-17T09:58:47.023Z,63.50
2018-05-17T10:01:13.919Z,63.70
2018-05-17T10:03:40.812Z,63.40
2018-05-17T10:06:07.677Z,63.20
2018-05-17T10:08:34.603Z,63.00
2018-05-17T10:11:01.476Z,63.10
2018-05-17T10:13:28.781Z,63.00
2018-05-17T10:15:55.664Z,63.10
2018-05-17T10:18:22.513Z,62.00
2018-05-17T10:20:49.534Z,62.70
2018-05-17T10:23:16.761Z,61.20
2018-05-17T10:25:43.635Z,61.20
2018-05-17T10:28:10.933Z,62.10
2018-05-17T10:30:37.791Z,62.00
2018-05-17T10:33:04.734Z,62.60
2018-05-17T10:35:31.639Z,63.60
2018-05-17T10:37:58.581Z,63.30
2018-05-17T10:40:25.426Z,63.70
2018-05-17T10:42:52.307Z,64.10
2018-05-17T10:45:19.176Z,64.40
2018-05-17T10:47:46.097Z,63.90
2018-05-17T10:50:13.045Z,64.80
2018-05-17T10:52:40.286Z,66.20
2018-05-17T10:55:07.580Z,65.20
2018-05-17T10:57:34.423Z,65.20
2018-05-17T11:00:01.440Z,65.60
2018-05-17T11:02:28.407Z,65.70
2018-05-17T11:04:55.219Z,65.60
2018-05-17T11:07:22.096Z,66.00
2018-05-17T11:09:49.053Z,64.80
2018-05-17T11:12:15.983Z,64.60
2018-05-17T11:14:42.874Z,64.00
2018-05-17T11:17:09.756Z,62.60
2018-05-17T11:19:36.614Z,63.10
2018-05-17T11:22:03.505Z,63.40
2018-05-17T11:24:30.793Z,63.30
2018-05-17T11:26:57.664Z,63.30
2018-05-17T11:29:24.565Z,62.60
2018-05-17T11:31:51.493Z,62.10
2018-05-17T11:34:18.354Z,61.80
2018-05-17T11:36:45.286Z,61.60
2018-05-17T11:39:12.179Z,62.00
2018-05-17T11:41:39.072Z,62.20
2018-05-17T11:44:06.061Z,61.70
2018-05-17T11:46:32.961Z,61.00
2018-05-17T11:48:59.828Z,61.60
2018-05-17T11:51:27.150Z,60.60
2018-05-17T11:53:54.032Z,60.60
2018-05-17T11:56:20.978Z,61.30
2018-05-17T11:58:47.860Z,61.30
2018-05-17T12:01:14.843Z,60.20
2018-05-17T12:03:42.117Z,58.90
2018-05-17T12:06:08.987Z,58.90
2018-05-17T12:08:35.994Z,59.60
2018-05-17T12:11:02.982Z,59.90
2018-05-17T12:13:30.053Z,59.20
2018-05-17T12:15:57.350Z,59.80
2018-05-17T12:18:24.193Z,59.80
2018-05-17T12:20:51.163Z,60.40
2018-05-17T12:23:18.052Z,60.10
2018-05-17T12:25:45.018Z,59.80
2018-05-17T12:28:11.988Z,60.70
2018-05-17T12:30:38.864Z,60.70
2018-05-17T12:33:06.135Z,60.60
2018-05-17T12:35:33.417Z,60.60
2018-05-17T12:38:00.741Z,60.90
2018-05-17T12:40:27.660Z,61.00
2018-05-17T12:42:54.604Z,60.20
2018-05-17T12:45:21.849Z,58.80
2018-05-17T12:47:49.092Z,56.90
2018-05-17T12:50:16.009Z,56.90
2018-05-17T12:52:42.890Z,58.00
2018-05-17T12:55:09.818Z,57.80
2018-05-17T12:57:36.804Z,58.30
2018-05-17T13:00:03.685Z,58.00
2018-05-17T13:02:30.561Z,59.00
2018-05-17T13:04:57.881Z,59.30
2018-05-17T13:07:24.711Z,59.30
2018-05-17T13:09:51.596Z,59.10
2018-05-17T13:12:18.444Z,59.80
2018-05-17T13:14:45.339Z,60.30
2018-05-17T13:17:12.263Z,59.80
2018-05-17T13:19:39.216Z,60.00
2018-05-17T13:22:06.071Z,59.70
2018-05-17T13:24:33.029Z,59.70
2018-05-17T13:26:59.898Z,60.50
2018-05-17T13:29:26.834Z,60.50
2018-05-17T13:31:54.069Z,58.90
2018-05-17T13:34:21.390Z,58.60
2018-05-17T13:36:48.379Z,58.60
2018-05-17T13:39:15.690Z,58.70
2018-05-17T13:41:42.983Z,57.60
2018-05-17T13:44:09.946Z,57.60
2018-05-17T13:46:36.824Z,58.40
2018-05-17T13:49:03.811Z,58.40
2018-05-17T13:51:31.111Z,59.20
2018-05-17T13:53:58.032Z,59.20
2018-05-17T13:56:25.306Z,59.00
2018-05-17T13:58:52.618Z,58.90
2018-05-17T14:01:19.490Z,58.90
2018-05-17T14:03:46.427Z,58.70
2018-05-17T14:06:13.288Z,58.60
2018-05-17T14:08:40.197Z,58.10
2018-05-17T14:11:07.517Z,57.20
2018-05-17T14:13:34.495Z,57.20
2018-05-17T14:16:01.459Z,56.80
2018-05-17T14:18:28.322Z,56.60
2018-05-17T14:20:55.239Z,57.20
2018-05-17T14:23:22.113Z,57.60
2018-05-17T14:25:49.063Z,57.90
2018-05-17T14:28:15.922Z,56.90
2018-05-17T14:30:42.807Z,56.80
2018-05-17T14:33:09.651Z,56.60
2018-05-17T14:35:36.588Z,55.70
2018-05-17T14:38:03.622Z,55.40
2018-05-17T14:40:31.112Z,55.30
2018-05-17T14:42:57.980Z,55.30
2018-05-17T14:45:24.953Z,54.50
2018-05-17T14:47:51.804Z,53.90
2018-05-17T14:50:18.674Z,54.80
2018-05-17T14:52:45.619Z,54.40
2018-05-17T14:55:12.533Z,54.90
2018-05-17T14:57:39.433Z,55.50
2018-05-17T15:00:06.380Z,55.70
2018-05-17T15:02:33.340Z,55.30
2018-05-17T15:05:00.295Z,55.50
2018-05-17T15:07:27.250Z,55.30
2018-05-17T15:09:54.531Z,55.50
2018-05-17T15:12:21.403Z,55.50
2018-05-17T15:14:48.374Z,55.40
2018-05-17T15:17:15.243Z,55.80
2018-05-17T15:19:42.103Z,55.80
2018-05-17T15:22:09.038Z,55.70
2018-05-17T15:24:36.010Z,55.40
2018-05-17T15:27:02.855Z,55.30
2018-05-17T15:29:29.762Z,55.80
2018-05-17T15:31:57.012Z,55.70
2018-05-17T15:34:24.019Z,55.70
2018-05-17T15:36:50.901Z,55.40
2018-05-17T15:39:17.739Z,56.00
2018-05-17T15:41:44.718Z,55.40
2018-05-17T15:44:11.566Z,55.70
2018-05-17T15:46:38.511Z,56.10
2018-05-17T15:49:05.377Z,55.90
2018-05-17T15:51:32.400Z,56.00
2018-05-17T15:53:59.303Z,55.10
2018-05-17T15:56:26.351Z,55.30
2018-05-17T15:58:53.231Z,56.00
2018-05-17T16:01:20.077Z,55.70
2018-05-17T16:03:47.017Z,56.10
2018-05-17T16:06:14.000Z,56.40
2018-05-17T16:08:40.888Z,55.50
2018-05-17T16:11:07.747Z,55.90
2018-05-17T16:13:34.642Z,56.10
2018-05-17T16:16:01.525Z,56.20
2018-05-17T16:18:28.575Z,56.20
2018-05-17T16:20:55.465Z,55.60
2018-05-17T16:23:22.328Z,55.40
2018-05-17T16:25:49.266Z,55.10
2018-05-17T16:28:16.194Z,54.90
2018-05-17T16:30:43.032Z,52.50
2018-05-17T16:33:09.899Z,51.50
2018-05-17T16:35:37.186Z,51.50
2018-05-17T16:38:04.129Z,51.50
2018-05-17T16:40:31.186Z,52.40
2018-05-17T16:42:58.167Z,51.60
2018-05-17T16:45:25.310Z,50.40
2018-05-17T16:47:52.206Z,51.10
2018-05-17T16:50:19.134Z,52.30
2018-05-17T16:52:46.070Z,52.40
2018-05-17T16:55:12.885Z,52.20
2018-05-17T16:57:39.811Z,51.90
2018-05-17T17:00:06.668Z,50.90
2018-05-17T17:02:33.612Z,50.30
2018-05-17T17:05:00.878Z,50.60
2018-05-17T17:07:27.701Z,50.60
2018-05-17T17:09:55.023Z,49.80
2018-05-17T17:12:21.870Z,49.80
2018-05-17T17:14:48.941Z,50.20
2018-05-17T17:17:15.891Z,50.80
2018-05-17T17:19:42.769Z,50.80
2018-05-17T17:22:09.706Z,49.90
2018-05-17T17:24:36.592Z,49.50
2018-05-17T17:27:03.476Z,49.60
2018-05-17T17:29:30.371Z,49.80
2018-05-17T17:31:57.249Z,50.80
2018-05-17T17:34:24.243Z,52.00
2018-05-17T17:36:51.473Z,52.70
2018-05-17T17:39:18.326Z,53.40
2018-05-17T17:41:45.202Z,52.70
2018-05-17T17:44:12.088Z,52.40
2018-05-17T17:46:39.008Z,51.80
2018-05-17T17:49:05.888Z,52.30
2018-05-17T17:51:32.799Z,52.80
2018-05-17T17:53:59.773Z,52.60
2018-05-17T17:56:26.733Z,51.60
2018-05-17T17:58:53.587Z,51.50
2018-05-17T18:01:20.546Z,51.60
2018-05-17T18:03:47.516Z,52.30
2018-05-17T18:06:14.467Z,52.40
2018-05-17T18:08:42.270Z,53.10
2018-05-17T18:11:09.151Z,54.30
2018-05-17T18:13:36.018Z,54.60
2018-05-17T18:16:03.286Z,56.70
2018-05-17T18:18:30.547Z,56.90
2018-05-17T18:20:57.825Z,57.00
2018-05-17T18:23:25.244Z,56.80
2018-05-17T18:25:52.097Z,56.80
2018-05-17T18:28:19.035Z,57.00
2018-05-17T18:30:45.943Z,56.60
2018-05-17T18:33:12.807Z,57.10
2018-05-17T18:35:39.724Z,57.10
2018-05-17T18:38:06.601Z,57.40
2018-05-17T18:40:33.540Z,58.10
2018-05-17T18:43:00.514Z,58.30
2018-05-17T18:45:27.383Z,57.80
2018-05-17T18:47:54.267Z,58.20
2018-05-17T18:50:21.557Z,58.10
2018-05-17T18:52:48.416Z,58.10
2018-05-17T18:55:15.312Z,58.20
2018-05-17T18:57:42.258Z,58.50
2018-05-17T19:00:09.269Z,58.70
2018-05-17T19:02:36.214Z,58.40
2018-05-17T19:05:03.407Z,58.50
2018-05-17T19:07:30.778Z,58.70
2018-05-17T19:09:58.015Z,59.00
2018-05-17T19:12:24.933Z,59.00
2018-05-17T19:14:51.843Z,59.30
2018-05-17T19:17:18.675Z,59.50
2018-05-17T19:19:45.554Z,59.40
2018-05-17T19:22:12.882Z,59.30
2018-05-17T19:24:39.870Z,59.30
2018-05-17T19:27:06.751Z,59.40
2018-05-17T19:29:33.707Z,59.30
2018-05-17T19:32:01.046Z,59.50
2018-05-17T19:34:27.935Z,59.50
2018-05-17T19:36:55.260Z,59.60
2018-05-17T19:39:22.103Z,59.60
2018-05-17T19:41:49.123Z,59.70
2018-05-17T19:44:15.954Z,59.80
2018-05-17T19:46:42.870Z,59.60
2018-05-17T19:49:09.825Z,60.20
2018-05-17T19:51:36.702Z,60.10
2018-05-17T19:54:03.569Z,60.10
2018-05-17T19:56:30.468Z,60.20
2018-05-17T19:58:57.773Z,60.50
2018-05-17T20:01:24.714Z,60.50
2018-05-17T20:03:51.569Z,60.50
2018-05-17T20:06:18.428Z,60.30
2018-05-17T20:08:45.306Z,60.50
2018-05-17T20:11:12.284Z,60.70
2018-05-17T20:13:39.225Z,60.70
2018-05-17T20:16:06.091Z,60.70
2018-05-17T20:18:33.076Z,60.70
2018-05-17T20:21:00.437Z,60.90
2018-05-17T20:23:27.319Z,61.00
2018-05-17T20:25:54.567Z,60.90
2018-05-17T20:28:21.477Z,60.90
2018-05-17T20:30:48.692Z,60.80
2018-05-17T20:33:15.617Z,60.80
2018-05-17T20:35:42.530Z,60.70
2018-05-17T20:38:09.847Z,61.10
2018-05-17T20:40:36.792Z,61.10
2018-05-17T20:43:03.659Z,61.20
2018-05-17T20:45:30.654Z,61.60
2018-05-17T20:47:58.291Z,61.70
2018-05-17T20:50:25.237Z,61.40
2018-05-17T20:52:52.096Z,61.40
2018-05-17T20:55:19.043Z,61.30
2018-05-17T20:57:45.824Z,61.10
2018-05-17T21:00:12.762Z,61.10
2018-05-17T21:02:39.654Z,61.30
2018-05-17T21:05:06.588Z,61.30
2018-05-17T21:07:33.461Z,61.20
2018-05-17T21:10:00.330Z,61.20
2018-05-17T21:12:27.263Z,61.40
2018-05-17T21:14:54.210Z,61.50
2018-05-17T21:17:21.106Z,61.70
2018-05-17T21:19:47.972Z,61.70
2018-05-17T21:22:14.808Z,61.70
2018-05-17T21:24:41.686Z,61.60
2018-05-17T21:27:08.624Z,61.80
2018-05-17T21:29:35.421Z,62.10
2018-05-17T21:32:02.323Z,62.50
2018-05-17T21:34:29.209Z,62.60
2018-05-17T21:36:56.084Z,62.80
2018-05-17T21:39:22.942Z,62.70
2018-05-17T21:41:49.855Z,62.60
2018-05-17T21:44:16.823Z,62.60
2018-05-17T21:46:43.683Z,63.00
2018-05-17T21:49:10.543Z,63.10
2018-05-17T21:51:37.469Z,63.20
2018-05-17T21:54:04.321Z,63.20
2018-05-17T21:56:31.195Z,63.20
2018-05-17T21:58:58.176Z,63.60
2018-05-17T22:01:25.075Z,63.70
2018-05-17T22:03:52.342Z,64.10
2018-05-17T22:06:19.658Z,64.10
2018-05-17T22:08:46.602Z,64.10
2018-05-17T22:11:13.559Z,64.20
2018-05-17T22:13:40.411Z,64.80
2018-05-17T22:16:07.275Z,64.80
2018-05-17T22:18:34.175Z,64.80
2018-05-17T22:21:01.113Z,64.90
2018-05-17T22:23:27.973Z,64.80
2018-05-17T22:25:54.923Z,65.00
2018-05-17T22:28:21.765Z,64.90
2018-05-17T22:30:48.742Z,64.90
2018-05-17T22:33:15.592Z,65.00
2018-05-17T22:35:42.458Z,65.10
2018-05-17T22:38:09.400Z,65.20
2018-05-17T22:40:36.583Z,65.30
2018-05-17T22:43:03.527Z,65.60
2018-05-17T22:45:30.405Z,65.60
2018-05-17T22:47:57.330Z,65.80
2018-05-17T22:50:24.303Z,66.00
2018-05-17T22:52:51.214Z,65.90
2018-05-17T22:55:18.526Z,66.10
2018-05-17T22:57:57.493Z,66.10
2018-05-17T23:00:24.358Z,66.50
2018-05-17T23:02:51.284Z,66.60
2018-05-17T23:05:18.144Z,67.00
2018-05-17T23:07:45.013Z,67.00
2018-05-17T23:10:11.954Z,67.20
2018-05-17T23:12:38.819Z,67.60
2018-05-17T23:15:05.688Z,67.60
2018-05-17T23:17:32.553Z,67.30
2018-05-17T23:19:59.521Z,67.20
2018-05-17T23:22:35.144Z,67.40
2018-05-17T23:25:02.019Z,67.70
2018-05-17T23:27:28.988Z,67.80
2018-05-17T23:29:55.847Z,67.90
2018-05-17T23:32:22.727Z,68.10
2018-05-17T23:34:49.562Z,68.10
2018-05-17T23:37:21.221Z,68.30
2018-05-17T23:39:48.173Z,68.30
2018-05-17T23:42:15.019Z,69.00
2018-05-17T23:44:41.886Z,69.20
2018-05-17T23:47:09.091Z,69.40
2018-05-17T23:49:36.252Z,69.30
2018-05-17T23:52:03.494Z,69.30
2018-05-17T23:54:30.449Z,69.70
2018-05-17T23:56:57.386Z,69.80
2018-05-17T23:59:24.264Z,69.70
